Time;durP1;ratioP1;P1;durP2;ratioP2;P2;SDS_P1;SDS_P2;PMS_P1;PMS_P2;Temp;Humidity;BMP_temperature;BMP_pressure;BME280_temperature;BME280_humidity;BME280_pressure;Samples;Min_cycle;Max_cycle;Signal;HPM_P1;HPM_P2
2024/02/14 00:01:09;;;;;;;10.60;7.05;;;7.30;99.90;;;;;;5051958;28;20117;-67
2024/02/14 00:03:36;;;;;;;17.05;8.23;;;7.30;99.90;;;;;;5050023;28;20040;-67
2024/02/14 00:06:04;;;;;;;12.68;7.00;;;7.30;99.90;;;;;;5046523;28;20072;-67
2024/02/14 00:08:30;;;;;;;12.75;8.10;;;7.30;99.90;;;;;;5050377;28;20117;-67
2024/02/14 00:10:55;;;;;;;10.70;7.95;;;7.30;99.90;;;;;;5048985;28;20032;-67
2024/02/14 00:13:21;;;;;;;14.05;7.75;;;7.30;99.90;;;;;;5050444;28;20087;-67
2024/02/14 00:15:47;;;;;;;12.93;8.32;;;7.30;99.90;;;;;;5051571;28;20032;-64
2024/02/14 00:18:15;;;;;;;11.55;7.50;;;7.40;99.90;;;;;;5058502;28;20041;-68
2024/02/14 00:20:41;;;;;;;11.88;7.85;;;7.30;99.90;;;;;;5057806;28;20053;-68
2024/02/14 00:23:07;;;;;;;12.52;8.10;;;7.30;99.90;;;;;;5060039;28;20110;-66
2024/02/14 00:25:33;;;;;;;13.85;7.95;;;7.40;99.90;;;;;;5058165;28;20291;-68
2024/02/14 00:28:03;;;;;;;12.35;7.97;;;7.40;99.90;;;;;;5031780;28;20049;-67
2024/02/14 00:30:29;;;;;;;14.43;8.00;;;7.40;99.90;;;;;;5025325;28;20222;-67
2024/02/14 00:32:55;;;;;;;12.90;7.85;;;7.40;99.90;;;;;;5034196;28;20033;-67
2024/02/14 00:35:23;;;;;;;12.27;7.95;;;7.40;99.90;;;;;;5045381;28;20721;-67
2024/02/14 00:37:49;;;;;;;13.55;8.25;;;7.40;99.90;;;;;;5028925;28;20033;-67
2024/02/14 00:40:15;;;;;;;12.25;7.75;;;7.40;99.90;;;;;;5041258;28;20037;-65
2024/02/14 00:42:40;;;;;;;14.05;7.90;;;7.40;99.90;;;;;;5036552;28;20507;-68
2024/02/14 00:45:08;;;;;;;15.85;8.73;;;7.40;99.90;;;;;;5050348;28;20518;-68
2024/02/14 00:47:34;;;;;;;14.32;8.60;;;7.50;99.90;;;;;;5049795;28;20048;-68
2024/02/14 00:50:01;;;;;;;12.68;7.90;;;7.50;99.90;;;;;;5046520;28;20060;-66
2024/02/14 00:52:26;;;;;;;13.55;8.20;;;7.50;99.90;;;;;;5018551;28;20030;-67
2024/02/14 00:54:52;;;;;;;13.38;7.63;;;7.50;99.90;;;;;;5040463;28;20105;-67
2024/02/14 00:57:19;;;;;;;14.60;8.35;;;7.50;99.90;;;;;;5045198;28;20098;-66
2024/02/14 00:59:44;;;;;;;12.88;7.90;;;7.50;99.90;;;;;;5041699;28;20029;-66
2024/02/14 01:02:10;;;;;;;12.05;7.35;;;7.50;99.90;;;;;;5044679;28;20045;-67
2024/02/14 01:04:37;;;;;;;9.38;7.05;;;7.50;99.90;;;;;;5040948;28;20052;-66
2024/02/14 01:07:03;;;;;;;9.98;7.00;;;7.60;99.90;;;;;;5060365;28;20119;-66
2024/02/14 01:09:29;;;;;;;10.23;7.05;;;7.60;99.90;;;;;;5053502;28;20130;-66
2024/02/14 01:11:55;;;;;;;12.18;7.45;;;7.60;99.90;;;;;;5044388;28;20091;-66
2024/02/14 01:14:22;;;;;;;10.55;7.15;;;7.60;99.90;;;;;;5047095;28;20137;-66
2024/02/14 01:16:47;;;;;;;9.10;6.63;;;7.60;99.90;;;;;;5040822;28;20512;-66
2024/02/14 01:19:13;;;;;;;9.02;6.75;;;7.70;99.90;;;;;;5032151;28;20045;-66
2024/02/14 01:21:39;;;;;;;9.63;7.07;;;7.70;99.90;;;;;;5047767;28;20055;-66
2024/02/14 01:24:05;;;;;;;8.98;6.50;;;7.70;99.90;;;;;;5047398;28;20044;-68
2024/02/14 01:26:32;;;;;;;11.27;6.93;;;7.70;99.90;;;;;;5050567;28;20040;-68
2024/02/14 01:29:00;;;;;;;11.07;7.03;;;7.70;99.90;;;;;;5051859;28;20508;-67
2024/02/14 01:31:26;;;;;;;9.40;6.80;;;7.70;99.90;;;;;;5052965;28;20037;-66
2024/02/14 01:33:53;;;;;;;10.68;6.43;;;7.80;99.90;;;;;;5065039;28;20410;-66
2024/02/14 01:36:18;;;;;;;9.10;6.68;;;7.80;99.90;;;;;;5058658;28;20059;-66
2024/02/14 01:38:45;;;;;;;9.90;7.00;;;7.80;99.90;;;;;;5052289;28;20571;-67
2024/02/14 01:41:10;;;;;;;9.15;6.32;;;7.80;99.90;;;;;;5056719;28;20128;-66
2024/02/14 01:43:37;;;;;;;9.75;6.95;;;7.80;99.90;;;;;;5065034;28;20068;-67
2024/02/14 01:46:07;;;;;;;9.43;6.72;;;7.80;99.90;;;;;;5053383;28;20090;-66
2024/02/14 01:48:34;;;;;;;8.40;6.38;;;7.80;99.90;;;;;;5064637;28;20098;-66
2024/02/14 01:51:01;;;;;;;9.85;6.00;;;7.90;99.90;;;;;;5054892;28;20463;-67
2024/02/14 01:53:29;;;;;;;8.57;6.13;;;7.90;99.90;;;;;;5048310;28;20048;-67
2024/02/14 01:55:57;;;;;;;10.13;6.43;;;7.90;99.90;;;;;;5061558;28;20404;-66
2024/02/14 01:58:23;;;;;;;8.60;5.57;;;7.90;99.90;;;;;;5050835;28;20033;-66
2024/02/14 02:00:49;;;;;;;7.22;5.50;;;7.90;99.90;;;;;;5059984;28;20463;-66
2024/02/14 02:03:14;;;;;;;7.43;5.72;;;8.00;99.90;;;;;;5051986;28;20064;-67
2024/02/14 02:05:42;;;;;;;10.95;6.15;;;8.00;99.90;;;;;;5052168;28;20080;-67
2024/02/14 02:08:10;;;;;;;9.00;5.80;;;8.00;99.90;;;;;;5044489;28;20038;-66
2024/02/14 02:10:37;;;;;;;10.95;6.00;;;8.00;99.90;;;;;;5059470;28;20457;-67
2024/02/14 02:13:03;;;;;;;9.35;5.93;;;8.10;99.90;;;;;;5060692;28;20033;-67
2024/02/14 02:15:29;;;;;;;7.88;5.88;;;8.10;99.90;;;;;;5048486;28;20037;-67
2024/02/14 02:17:55;;;;;;;8.48;5.60;;;8.10;99.90;;;;;;5052705;28;20040;-67
2024/02/14 02:20:21;;;;;;;7.68;5.50;;;8.00;99.90;;;;;;5049173;28;20399;-66
2024/02/14 02:22:48;;;;;;;8.05;5.75;;;8.10;99.90;;;;;;5046778;28;20040;-67
2024/02/14 02:25:14;;;;;;;9.10;5.18;;;8.10;99.90;;;;;;5056477;28;20055;-66
2024/02/14 02:27:39;;;;;;;8.38;5.93;;;8.10;99.90;;;;;;5062488;28;20119;-67
2024/02/14 02:30:06;;;;;;;6.72;5.00;;;8.10;99.90;;;;;;5056988;28;20041;-68
2024/02/14 02:32:32;;;;;;;7.72;5.70;;;8.10;99.90;;;;;;5057526;28;20029;-67
2024/02/14 02:34:59;;;;;;;8.32;6.15;;;8.10;99.90;;;;;;5059297;28;20396;-67
2024/02/14 02:37:25;;;;;;;6.95;5.32;;;8.10;99.90;;;;;;5058267;28;20040;-66
2024/02/14 02:39:51;;;;;;;6.93;5.57;;;8.20;99.90;;;;;;5058323;28;20047;-67
2024/02/14 02:42:18;;;;;;;9.63;6.03;;;8.20;99.90;;;;;;5044509;28;20033;-67
2024/02/14 02:44:46;;;;;;;8.98;5.82;;;8.20;99.90;;;;;;5051967;28;20045;-67
2024/02/14 02:47:12;;;;;;;11.25;6.22;;;8.20;99.90;;;;;;5043824;28;20512;-67
2024/02/14 02:49:38;;;;;;;8.90;5.95;;;8.20;99.90;;;;;;5035122;28;20045;-67
2024/02/14 02:52:04;;;;;;;8.55;6.07;;;8.20;99.90;;;;;;5035106;28;20047;-67
2024/02/14 02:54:29;;;;;;;9.55;6.82;;;8.30;99.90;;;;;;5051518;28;20442;-67
2024/02/14 02:56:55;;;;;;;9.20;6.70;;;8.30;99.90;;;;;;5052952;28;20047;-68
2024/02/14 02:59:21;;;;;;;8.70;6.63;;;8.30;99.90;;;;;;5053661;28;20509;-67
2024/02/14 03:01:49;;;;;;;9.90;6.78;;;8.30;99.90;;;;;;5053702;28;20033;-66
2024/02/14 03:04:15;;;;;;;9.73;6.38;;;8.30;99.90;;;;;;5055984;28;20029;-65
2024/02/14 03:06:43;;;;;;;11.55;6.82;;;8.40;99.90;;;;;;5049488;28;20090;-66
2024/02/14 03:09:09;;;;;;;10.93;6.90;;;8.40;99.90;;;;;;5054868;28;20044;-65
2024/02/14 03:11:35;;;;;;;9.80;6.68;;;8.40;99.90;;;;;;5054564;28;20484;-65
2024/02/14 03:14:02;;;;;;;8.70;6.47;;;8.40;99.90;;;;;;5052685;28;20036;-65
2024/02/14 03:16:29;;;;;;;9.90;7.57;;;8.40;99.90;;;;;;5061446;28;20067;-65
2024/02/14 03:18:55;;;;;;;9.85;7.13;;;8.40;99.90;;;;;;5065189;28;20036;-65
2024/02/14 03:21:20;;;;;;;10.68;7.43;;;8.60;99.90;;;;;;5064406;28;20077;-67
2024/02/14 03:23:46;;;;;;;10.45;7.50;;;8.50;99.90;;;;;;5045983;28;20118;-65
2024/02/14 03:26:11;;;;;;;10.27;7.38;;;8.50;99.90;;;;;;5062234;28;20627;-65
2024/02/14 03:28:37;;;;;;;11.75;7.40;;;8.50;99.90;;;;;;5062579;28;20036;-65
2024/02/14 03:31:04;;;;;;;10.52;7.03;;;8.60;99.90;;;;;;5051980;28;20043;-66
2024/02/14 03:33:30;;;;;;;9.73;6.70;;;8.50;99.90;;;;;;5054915;28;20119;-65
2024/02/14 03:35:55;;;;;;;9.23;6.65;;;8.60;99.90;;;;;;5058895;28;20042;-65
2024/02/14 03:38:28;;;;;;;11.27;7.03;;;8.60;99.90;;;;;;5059790;28;20045;-66
2024/02/14 03:40:54;;;;;;;11.80;7.13;;;8.60;99.90;;;;;;5058052;28;20469;-65
2024/02/14 03:43:21;;;;;;;9.75;7.22;;;8.70;99.90;;;;;;5050592;28;20051;-65
2024/02/14 03:45:47;;;;;;;12.95;7.57;;;8.60;99.90;;;;;;5054950;28;20048;-67
2024/02/14 03:48:13;;;;;;;10.23;7.60;;;8.70;99.90;;;;;;5055328;28;20048;-71
2024/02/14 03:50:39;;;;;;;11.73;8.20;;;8.80;99.90;;;;;;5060360;28;20044;-65
2024/02/14 03:53:05;;;;;;;11.77;8.23;;;8.80;99.90;;;;;;5045723;28;20256;-65
2024/02/14 03:55:31;;;;;;;12.00;8.05;;;8.80;99.90;;;;;;5047387;28;20049;-65
2024/02/14 03:57:56;;;;;;;12.02;8.05;;;8.80;99.90;;;;;;5050995;28;20028;-65
2024/02/14 04:00:22;;;;;;;13.90;8.60;;;8.90;99.90;;;;;;5054462;28;20516;-65
2024/02/14 04:02:49;;;;;;;12.80;8.20;;;8.90;99.90;;;;;;5060550;28;20043;-65
2024/02/14 04:05:15;;;;;;;14.23;8.65;;;8.90;99.90;;;;;;5053606;28;20071;-65
2024/02/14 04:07:40;;;;;;;13.05;8.25;;;8.90;99.90;;;;;;5056695;28;20044;-65
2024/02/14 04:10:06;;;;;;;13.80;8.38;;;9.00;99.90;;;;;;5053006;28;20123;-66
2024/02/14 04:12:32;;;;;;;12.38;8.82;;;9.00;99.90;;;;;;5058480;28;20123;-66
2024/02/14 04:14:58;;;;;;;11.93;7.85;;;9.00;99.90;;;;;;5062614;28;20124;-67
2024/02/14 04:17:24;;;;;;;11.85;8.25;;;9.00;99.90;;;;;;5050704;28;20365;-65
2024/02/14 04:19:50;;;;;;;12.15;8.70;;;9.20;99.90;;;;;;5053717;28;20044;-69
2024/02/14 04:22:15;;;;;;;12.00;8.05;;;9.10;99.90;;;;;;5053233;28;20033;-65
2024/02/14 04:24:41;;;;;;;13.55;8.75;;;9.10;99.90;;;;;;5060285;28;20044;-65
2024/02/14 04:27:07;;;;;;;11.00;8.43;;;9.10;99.90;;;;;;5048929;28;20063;-65
2024/02/14 04:29:33;;;;;;;12.43;8.23;;;9.20;99.90;;;;;;5061445;28;20403;-65
2024/02/14 04:32:02;;;;;;;12.93;8.20;;;9.20;99.90;;;;;;5057841;28;20041;-66
2024/02/14 04:34:29;;;;;;;12.68;8.60;;;9.20;99.90;;;;;;5048164;28;20116;-66
2024/02/14 04:36:56;;;;;;;11.82;7.90;;;9.20;99.90;;;;;;5050602;28;20110;-65
2024/02/14 04:39:22;;;;;;;12.13;8.05;;;9.30;99.90;;;;;;5061823;28;20037;-65
2024/02/14 04:41:47;;;;;;;12.32;8.13;;;9.00;99.90;;;;;;5051233;28;20082;-66
2024/02/14 04:44:13;;;;;;;12.18;7.85;;;9.30;99.90;;;;;;5042161;28;20037;-65
2024/02/14 04:46:43;;;;;;;10.88;7.75;;;9.30;99.90;;;;;;5055597;28;20458;-68
2024/02/14 04:49:09;;;;;;;14.05;7.97;;;9.30;99.90;;;;;;5049979;28;20053;-69
2024/02/14 04:51:35;;;;;;;13.25;9.25;;;9.30;99.90;;;;;;5052378;28;20556;-68
2024/02/14 04:54:00;;;;;;;11.63;8.25;;;9.40;99.90;;;;;;5058823;28;20119;-71
2024/02/14 04:56:27;;;;;;;11.90;8.90;;;9.40;99.90;;;;;;5050665;28;20071;-65
2024/02/14 04:58:54;;;;;;;12.10;8.27;;;9.40;99.90;;;;;;5043037;28;20044;-66
2024/02/14 05:01:20;;;;;;;12.98;9.07;;;9.40;99.90;;;;;;5041432;28;20044;-65
2024/02/14 05:03:46;;;;;;;13.02;8.88;;;9.50;99.90;;;;;;5051808;28;20036;-66
2024/02/14 05:06:11;;;;;;;13.30;8.90;;;9.40;99.90;;;;;;5040299;28;20068;-66
2024/02/14 05:08:37;;;;;;;12.95;9.35;;;9.50;99.90;;;;;;5062473;28;20095;-66
2024/02/14 05:11:03;;;;;;;12.40;9.18;;;9.50;99.90;;;;;;5053463;28;20048;-65
2024/02/14 05:13:30;;;;;;;12.82;9.05;;;9.50;99.90;;;;;;5052528;28;20041;-65
2024/02/14 05:15:56;;;;;;;12.88;8.82;;;9.50;99.90;;;;;;5045250;28;20542;-71
2024/02/14 05:18:21;;;;;;;10.93;8.35;;;9.50;99.90;;;;;;5043337;28;20068;-70
2024/02/14 05:20:47;;;;;;;12.15;8.50;;;9.50;99.90;;;;;;5061223;28;20439;-65
2024/02/14 05:23:13;;;;;;;12.77;9.48;;;9.50;99.90;;;;;;5057803;28;20051;-65
2024/02/14 05:25:39;;;;;;;14.98;9.45;;;9.60;99.90;;;;;;5062385;28;20037;-66
2024/02/14 05:28:05;;;;;;;12.95;9.00;;;9.60;99.90;;;;;;5049004;28;20488;-66
2024/02/14 05:30:31;;;;;;;15.13;9.43;;;9.60;99.90;;;;;;5055429;28;20049;-65
2024/02/14 05:32:57;;;;;;;16.20;10.63;;;9.60;99.90;;;;;;5061229;28;20056;-65
2024/02/14 05:35:23;;;;;;;12.77;9.50;;;9.60;99.90;;;;;;5044978;28;20036;-65
2024/02/14 05:37:49;;;;;;;17.27;9.82;;;9.60;99.90;;;;;;5039052;28;20041;-66
2024/02/14 05:40:15;;;;;;;16.38;10.85;;;9.60;99.90;;;;;;5043933;28;20044;-66
2024/02/14 05:42:41;;;;;;;14.07;10.85;;;9.60;99.90;;;;;;5048318;28;20033;-66
2024/02/14 05:45:09;;;;;;;17.88;12.02;;;9.60;99.90;;;;;;5058040;28;20120;-66
2024/02/14 05:47:35;;;;;;;16.33;10.80;;;9.60;99.90;;;;;;5062322;28;20511;-66
2024/02/14 05:50:01;;;;;;;18.02;11.68;;;9.70;99.90;;;;;;5045683;28;20057;-68
2024/02/14 05:52:26;;;;;;;18.92;12.15;;;9.60;99.90;;;;;;5047406;28;20057;-72
2024/02/14 05:54:52;;;;;;;19.27;12.48;;;9.70;99.90;;;;;;5047123;28;20033;-66
2024/02/14 05:57:17;;;;;;;18.20;11.63;;;9.60;99.90;;;;;;5041354;28;20041;-69
2024/02/14 05:59:43;;;;;;;17.45;11.77;;;9.70;99.90;;;;;;5043160;28;20125;-71
2024/02/14 06:02:09;;;;;;;20.20;12.60;;;9.70;99.90;;;;;;5043078;28;20036;-72
2024/02/14 06:04:35;;;;;;;21.60;13.05;;;9.70;99.90;;;;;;5041560;28;20048;-72
2024/02/14 06:07:02;;;;;;;20.23;13.00;;;9.70;99.90;;;;;;5033016;28;20684;-72
2024/02/14 06:09:29;;;;;;;22.25;13.80;;;9.80;99.90;;;;;;5042792;28;20048;-66
2024/02/14 06:11:54;;;;;;;21.55;13.43;;;9.80;99.90;;;;;;5043762;28;20143;-66
2024/02/14 06:14:20;;;;;;;21.73;13.85;;;9.80;99.90;;;;;;5048030;28;20056;-66
2024/02/14 06:16:45;;;;;;;24.17;14.80;;;9.70;99.90;;;;;;5050596;28;20032;-67
2024/02/14 06:19:12;;;;;;;24.98;14.15;;;9.80;99.90;;;;;;5053042;28;20033;-72
2024/02/14 06:21:38;;;;;;;23.38;14.40;;;9.70;99.90;;;;;;5054778;28;20045;-66
2024/02/14 06:24:04;;;;;;;23.63;15.27;;;9.70;99.90;;;;;;5057595;28;20492;-69
2024/02/14 06:26:31;;;;;;;28.38;15.73;;;9.70;99.90;;;;;;5047154;28;20123;-72
2024/02/14 06:28:57;;;;;;;26.73;15.93;;;9.80;99.90;;;;;;5056186;28;20045;-66
2024/02/14 06:31:23;;;;;;;32.00;18.00;;;9.80;99.90;;;;;;5048024;28;20043;-66
2024/02/14 06:33:48;;;;;;;32.58;18.10;;;9.80;99.90;;;;;;5051129;28;20043;-72
2024/02/14 06:36:14;;;;;;;34.60;17.38;;;9.80;99.90;;;;;;5054664;28;20037;-67
2024/02/14 06:38:40;;;;;;;36.50;18.70;;;9.80;99.90;;;;;;5045733;28;20051;-69
2024/02/14 06:41:06;;;;;;;33.78;18.75;;;9.80;99.90;;;;;;5039506;28;20045;-65
2024/02/14 06:43:31;;;;;;;36.42;19.92;;;9.80;99.90;;;;;;5039760;28;20038;-65
2024/02/14 06:45:57;;;;;;;39.25;20.38;;;9.80;99.90;;;;;;5048067;28;20059;-66
2024/02/14 06:48:24;;;;;;;36.78;20.45;;;9.80;99.90;;;;;;5034015;28;20492;-73
2024/02/14 06:50:50;;;;;;;35.40;19.48;;;9.80;99.90;;;;;;5053377;28;20044;-66
2024/02/14 06:53:16;;;;;;;35.13;19.17;;;9.80;99.90;;;;;;5060464;28;20484;-66
2024/02/14 06:55:42;;;;;;;38.75;19.98;;;9.90;99.90;;;;;;5052074;28;20138;-72
2024/02/14 06:58:08;;;;;;;37.53;20.85;;;9.90;99.90;;;;;;5051247;28;20125;-66
2024/02/14 07:00:34;;;;;;;40.17;20.27;;;9.90;99.90;;;;;;5053191;28;20061;-66
2024/02/14 07:02:59;;;;;;;35.30;18.30;;;9.90;99.90;;;;;;5050507;28;20054;-66
2024/02/14 07:05:27;;;;;;;36.08;18.48;;;9.90;99.90;;;;;;5051087;28;20108;-67
2024/02/14 07:07:53;;;;;;;38.38;19.38;;;9.90;99.90;;;;;;5049017;28;20032;-67
2024/02/14 07:10:19;;;;;;;32.00;18.13;;;9.90;99.90;;;;;;5052699;28;20059;-72
2024/02/14 07:12:44;;;;;;;32.25;18.38;;;9.90;99.90;;;;;;5060679;28;20087;-66
2024/02/14 07:15:11;;;;;;;33.17;17.90;;;9.90;99.90;;;;;;5057076;28;20037;-66
2024/02/14 07:17:38;;;;;;;42.70;19.65;;;9.90;99.90;;;;;;5055102;28;20041;-69
2024/02/14 07:20:04;;;;;;;40.70;19.98;;;9.90;99.90;;;;;;5046023;28;20033;-65
2024/02/14 07:22:30;;;;;;;39.33;19.80;;;9.90;99.90;;;;;;5055221;28;20052;-66
2024/02/14 07:24:56;;;;;;;40.75;20.08;;;10.00;99.90;;;;;;5063220;28;20037;-65
2024/02/14 07:27:23;;;;;;;35.83;20.48;;;9.90;99.90;;;;;;5060929;28;20068;-66
2024/02/14 07:29:49;;;;;;;44.88;22.20;;;10.00;99.90;;;;;;5049733;28;20040;-69
2024/02/14 07:32:16;;;;;;;44.25;21.23;;;10.00;99.90;;;;;;5057885;28;20033;-65
2024/02/14 07:34:42;;;;;;;39.47;21.45;;;10.00;99.90;;;;;;5044316;28;20044;-66
2024/02/14 07:37:08;;;;;;;44.20;22.05;;;10.10;99.90;;;;;;5057085;28;20041;-70
2024/02/14 07:39:34;;;;;;;48.95;23.10;;;10.10;99.90;;;;;;5053769;28;20489;-71
2024/02/14 07:42:01;;;;;;;49.17;23.40;;;10.10;99.90;;;;;;5060300;28;20056;-65
2024/02/14 07:44:27;;;;;;;48.20;24.27;;;10.10;99.90;;;;;;5051559;28;20052;-65
2024/02/14 07:46:52;;;;;;;48.67;24.40;;;10.10;99.90;;;;;;5059669;28;20503;-65
2024/02/14 07:49:19;;;;;;;49.92;24.00;;;10.10;99.90;;;;;;5057730;28;20033;-66
2024/02/14 07:51:45;;;;;;;50.10;24.80;;;10.10;99.90;;;;;;5056028;28;20049;-65
2024/02/14 07:54:10;;;;;;;54.90;24.95;;;10.20;99.90;;;;;;5064004;28;20029;-65
2024/02/14 07:56:36;;;;;;;45.60;23.48;;;10.10;99.90;;;;;;5060728;28;20086;-69
2024/02/14 07:59:02;;;;;;;54.20;24.23;;;10.20;99.90;;;;;;5062056;28;20491;-65
2024/02/14 08:01:28;;;;;;;46.63;23.27;;;10.20;99.90;;;;;;5060844;28;20506;-65
2024/02/14 08:03:54;;;;;;;52.90;23.40;;;10.20;99.90;;;;;;5055106;28;20087;-65
2024/02/14 08:06:20;;;;;;;41.13;22.42;;;10.20;99.90;;;;;;5050600;28;20040;-65
2024/02/14 08:08:45;;;;;;;44.63;21.83;;;10.20;99.90;;;;;;5056755;28;20091;-65
2024/02/14 08:11:11;;;;;;;43.80;22.85;;;10.20;99.90;;;;;;5045091;28;20045;-65
2024/02/14 08:13:39;;;;;;;43.00;22.17;;;10.20;99.90;;;;;;5047669;28;20072;-67
2024/02/14 08:16:06;;;;;;;41.75;22.85;;;10.30;99.90;;;;;;5052206;28;20049;-71
2024/02/14 08:18:32;;;;;;;47.47;22.45;;;10.30;99.90;;;;;;5050389;28;20091;-65
2024/02/14 08:20:58;;;;;;;44.78;22.33;;;10.30;99.90;;;;;;5045295;28;20537;-65
2024/02/14 08:23:23;;;;;;;53.90;23.38;;;10.20;99.90;;;;;;5050282;28;20052;-66
2024/02/14 08:25:49;;;;;;;49.65;23.60;;;10.30;99.90;;;;;;5045845;28;20041;-70
2024/02/14 08:28:17;;;;;;;47.88;23.27;;;10.30;99.90;;;;;;5050972;28;20408;-72
2024/02/14 08:30:44;;;;;;;50.78;23.63;;;10.30;99.90;;;;;;5057159;28;20037;-69
2024/02/14 08:33:10;;;;;;;46.45;22.63;;;10.30;99.90;;;;;;5048403;28;20045;-67
2024/02/14 08:35:36;;;;;;;43.92;22.45;;;10.30;99.90;;;;;;5051287;28;20443;-66
2024/02/14 08:38:02;;;;;;;42.53;21.65;;;10.30;99.90;;;;;;5055070;28;20037;-66
2024/02/14 08:40:27;;;;;;;41.67;20.95;;;10.30;99.90;;;;;;5051092;28;20033;-71
2024/02/14 08:42:53;;;;;;;39.65;19.73;;;10.30;99.90;;;;;;5049535;28;20072;-65
2024/02/14 08:45:18;;;;;;;36.50;19.10;;;10.40;99.90;;;;;;5047077;28;20064;-65
2024/02/14 08:47:44;;;;;;;35.15;18.92;;;10.30;99.90;;;;;;5050838;28;20040;-65
2024/02/14 08:50:10;;;;;;;33.70;18.95;;;10.30;99.90;;;;;;5054434;28;20051;-70
2024/02/14 08:52:37;;;;;;;33.58;18.35;;;10.40;99.90;;;;;;5051637;28;20071;-72
2024/02/14 08:55:04;;;;;;;31.52;18.10;;;10.40;99.90;;;;;;5050303;28;20072;-65
2024/02/14 08:57:31;;;;;;;34.40;18.60;;;10.40;99.90;;;;;;5050829;28;20040;-65
2024/02/14 08:59:57;;;;;;;37.35;21.10;;;10.40;99.90;;;;;;5046791;28;20451;-66
2024/02/14 09:02:22;;;;;;;35.05;18.40;;;10.40;99.90;;;;;;5049281;28;20048;-66
2024/02/14 09:04:49;;;;;;;38.05;19.40;;;10.40;99.90;;;;;;5050629;28;20037;-71
2024/02/14 09:07:15;;;;;;;41.63;20.20;;;10.40;99.90;;;;;;5060307;28;20109;-66
2024/02/14 09:09:41;;;;;;;39.67;21.38;;;10.40;99.90;;;;;;5044498;28;20056;-65
2024/02/14 09:12:07;;;;;;;45.17;21.90;;;10.40;99.90;;;;;;5045613;28;20046;-66
2024/02/14 09:14:33;;;;;;;38.88;20.95;;;10.40;99.90;;;;;;5055249;28;20036;-72
2024/02/14 09:16:59;;;;;;;41.05;20.95;;;10.40;99.90;;;;;;5049942;28;20052;-68
2024/02/14 09:19:25;;;;;;;38.40;20.30;;;10.40;99.90;;;;;;5051990;28;20041;-67
2024/02/14 09:21:51;;;;;;;43.28;21.80;;;10.40;99.90;;;;;;5049756;28;20077;-72
2024/02/14 09:24:16;;;;;;;45.72;21.90;;;10.50;99.90;;;;;;5053320;28;20068;-69
2024/02/14 09:26:43;;;;;;;41.00;21.60;;;10.40;99.90;;;;;;5036846;28;20045;-65
2024/02/14 09:29:10;;;;;;;46.95;22.20;;;10.40;99.90;;;;;;5049318;28;20432;-65
2024/02/14 09:31:36;;;;;;;50.15;22.88;;;10.40;99.90;;;;;;5048940;28;20069;-65
2024/02/14 09:34:02;;;;;;;44.05;22.40;;;10.40;99.90;;;;;;5048847;28;20483;-65
2024/02/14 09:36:28;;;;;;;47.83;23.38;;;10.40;99.90;;;;;;5043836;28;20069;-66
2024/02/14 09:38:55;;;;;;;51.70;24.58;;;10.50;99.90;;;;;;5050983;28;20500;-65
2024/02/14 09:41:33;;;;;;;55.63;23.60;;;10.50;99.90;;;;;;5050060;28;20138;-65
2024/02/14 09:43:59;;;;;;;54.40;25.58;;;10.50;99.90;;;;;;5051893;28;20041;-65
2024/02/14 09:46:27;;;;;;;50.85;24.33;;;10.50;99.90;;;;;;5060517;28;20373;-67
2024/02/14 09:48:54;;;;;;;51.05;25.67;;;10.50;99.90;;;;;;5044124;28;20037;-66
2024/02/14 09:51:21;;;;;;;49.33;25.08;;;10.50;99.90;;;;;;5056449;28;20492;-66
2024/02/14 09:53:47;;;;;;;49.10;25.20;;;10.70;99.90;;;;;;5059480;28;20039;-65
2024/02/14 09:56:16;;;;;;;49.60;24.55;;;10.60;99.90;;;;;;5039132;28;20032;-65
2024/02/14 09:58:42;;;;;;;51.10;24.58;;;10.60;99.90;;;;;;5047862;28;20496;-68
2024/02/14 10:01:08;;;;;;;42.63;23.30;;;10.60;99.90;;;;;;5048524;28;20468;-66
2024/02/14 10:03:35;;;;;;;47.83;22.70;;;10.60;99.90;;;;;;5047865;28;20039;-71
2024/02/14 10:06:01;;;;;;;42.95;21.23;;;10.70;99.90;;;;;;5048526;28;20060;-66
2024/02/14 10:08:28;;;;;;;42.70;21.20;;;10.70;99.90;;;;;;5047398;28;20053;-65
2024/02/14 10:10:56;;;;;;;38.50;20.45;;;10.70;99.90;;;;;;5055641;28;20090;-68
2024/02/14 10:13:22;;;;;;;40.63;19.55;;;10.70;99.90;;;;;;5048233;28;20080;-65
2024/02/14 10:15:48;;;;;;;39.85;19.67;;;10.70;99.90;;;;;;5049443;28;20104;-65
2024/02/14 10:18:16;;;;;;;43.72;19.38;;;10.70;99.90;;;;;;5049582;28;20033;-72
2024/02/14 10:20:51;;;;;;;38.75;19.98;;;10.70;99.90;;;;;;5052390;28;20041;-66
2024/02/14 10:23:17;;;;;;;42.00;21.10;;;10.70;99.90;;;;;;5060207;28;20492;-65
2024/02/14 10:25:43;;;;;;;40.72;19.98;;;10.70;99.90;;;;;;5057885;28;20072;-67
2024/02/14 10:28:08;;;;;;;43.95;21.52;;;10.70;99.90;;;;;;5060169;28;20067;-68
2024/02/14 10:30:37;;;;;;;44.22;21.70;;;10.70;99.90;;;;;;5051548;28;20381;-68
2024/02/14 10:33:03;;;;;;;46.00;21.58;;;10.70;99.90;;;;;;5045866;28;20049;-67
2024/02/14 10:35:31;;;;;;;39.65;20.45;;;10.80;99.90;;;;;;5052593;28;20045;-68
2024/02/14 10:38:00;;;;;;;38.13;21.13;;;10.80;99.90;;;;;;5055593;28;20071;-68
2024/02/14 10:40:28;;;;;;;39.33;20.25;;;10.80;99.90;;;;;;5051291;28;20041;-68
2024/02/14 10:42:54;;;;;;;38.08;21.17;;;10.80;99.90;;;;;;5055977;28;20036;-68
2024/02/14 10:45:20;;;;;;;38.75;20.23;;;10.80;99.90;;;;;;5052382;28;20459;-67
2024/02/14 10:47:48;;;;;;;37.15;20.13;;;10.80;99.90;;;;;;5053634;28;20029;-68
2024/02/14 10:50:15;;;;;;;33.95;18.65;;;10.80;99.90;;;;;;5049331;28;20059;-67
2024/02/14 10:52:42;;;;;;;32.30;19.20;;;10.90;99.90;;;;;;5051201;28;20049;-67
2024/02/14 10:55:09;;;;;;;29.30;17.90;;;10.90;99.90;;;;;;5051821;28;20073;-67
2024/02/14 10:57:35;;;;;;;32.40;18.95;;;10.90;99.90;;;;;;5062867;28;20438;-67
2024/02/14 11:00:09;;;;;;;29.08;16.52;;;10.90;99.90;;;;;;5059852;28;20049;-68
2024/02/14 11:02:36;;;;;;;26.17;15.98;;;10.90;99.90;;;;;;5060811;28;20048;-67
2024/02/14 11:05:02;;;;;;;26.58;16.02;;;11.00;99.90;;;;;;5065051;28;20049;-68
2024/02/14 11:07:28;;;;;;;22.83;14.43;;;11.00;99.90;;;;;;5050617;28;20029;-67
2024/02/14 11:10:07;;;;;;;21.60;14.90;;;11.00;99.90;;;;;;5055037;28;20045;-67
2024/02/14 11:12:36;;;;;;;22.55;14.13;;;11.00;99.90;;;;;;5051887;28;20516;-67
2024/02/14 11:15:21;;;;;;;20.90;13.50;;;11.10;99.90;;;;;;5057035;28;20105;-67
2024/02/14 11:17:52;;;;;;;20.70;13.20;;;11.10;99.90;;;;;;5060289;28;20029;-67
2024/02/14 11:20:19;;;;;;;20.15;13.95;;;11.10;99.90;;;;;;5049379;28;20037;-67
2024/02/14 11:23:03;;;;;;;18.42;13.20;;;11.10;99.90;;;;;;5051178;28;20061;-67
2024/02/14 11:25:30;;;;;;;20.73;13.10;;;11.10;99.90;;;;;;5064631;28;20055;-67
2024/02/14 11:27:57;;;;;;;19.25;12.25;;;11.20;99.90;;;;;;5056884;28;20045;-67
2024/02/14 11:30:35;;;;;;;18.67;12.70;;;11.20;99.90;;;;;;5056650;28;20104;-67
2024/02/14 11:33:21;;;;;;;18.60;11.77;;;11.20;99.90;;;;;;5044914;28;20163;-67
2024/02/14 11:35:55;;;;;;;16.60;12.10;;;11.20;99.90;;;;;;5055350;28;20389;-67
2024/02/14 11:38:21;;;;;;;15.32;11.73;;;11.30;99.90;;;;;;5056180;28;20029;-67
2024/02/14 11:40:48;;;;;;;16.02;11.60;;;11.30;99.90;;;;;;5058477;28;20048;-67
2024/02/14 11:43:16;;;;;;;18.05;11.85;;;11.40;99.90;;;;;;5054856;28;20048;-67
2024/02/14 11:45:43;;;;;;;16.05;11.32;;;11.40;99.90;;;;;;5051739;28;20135;-67
2024/02/14 11:48:11;;;;;;;13.88;11.10;;;11.50;99.90;;;;;;5063843;28;20037;-67
2024/02/14 11:50:38;;;;;;;15.05;11.20;;;11.50;99.90;;;;;;5057645;28;20081;-67
2024/02/14 11:53:07;;;;;;;13.98;10.40;;;11.50;99.90;;;;;;5058226;28;20029;-67
2024/02/14 11:55:36;;;;;;;13.77;10.88;;;11.50;99.90;;;;;;5066595;28;20048;-67
2024/02/14 11:58:02;;;;;;;13.88;10.90;;;11.50;99.90;;;;;;5048964;28;20047;-67
2024/02/14 12:00:27;;;;;;;16.90;10.85;;;11.50;99.90;;;;;;5049966;28;20124;-67
2024/02/14 12:02:53;;;;;;;14.48;10.63;;;11.50;99.90;;;;;;5059760;28;20082;-66
2024/02/14 12:05:20;;;;;;;14.85;10.95;;;11.50;99.90;;;;;;5052335;28;20128;-67
2024/02/14 12:07:46;;;;;;;14.93;10.82;;;11.50;99.90;;;;;;5057131;28;20028;-67
2024/02/14 12:10:12;;;;;;;17.90;11.75;;;11.50;99.90;;;;;;5052539;28;20045;-67
2024/02/14 12:12:38;;;;;;;16.42;11.50;;;11.50;99.90;;;;;;5055877;28;20045;-67
2024/02/14 12:15:06;;;;;;;15.90;11.68;;;11.50;99.90;;;;;;5056468;28;20114;-67
2024/02/14 12:17:32;;;;;;;18.05;12.18;;;11.40;99.90;;;;;;5037336;28;20037;-67
2024/02/14 12:20:13;;;;;;;19.75;12.68;;;11.40;99.90;;;;;;5066041;28;20036;-67
2024/02/14 12:22:40;;;;;;;17.45;12.48;;;11.40;99.90;;;;;;5058909;28;20037;-67
2024/02/14 12:25:07;;;;;;;20.85;12.57;;;11.40;99.90;;;;;;5063254;28;20045;-67
2024/02/14 12:27:34;;;;;;;22.63;13.25;;;11.40;99.90;;;;;;5046805;28;20587;-67
2024/02/14 12:30:04;;;;;;;21.48;13.27;;;11.40;99.90;;;;;;5041022;28;20037;-67
2024/02/14 12:32:29;;;;;;;18.85;13.20;;;11.30;99.90;;;;;;5042098;28;20447;-67
2024/02/14 12:34:59;;;;;;;20.20;13.27;;;11.40;99.90;;;;;;5051942;28;20041;-67